sim
Sign-in with your pilot id or email,
or register
Callsign
Passwort

Schedule Details

Flight Number: OEO2128
Departure: Frankfurt Airport (EDDF) at 12:10
Arrival: Thessaloniki International Airport (LGTS) at 14:40

Weather Information
Getting current METAR information for EDDF 211450Z 21007KT 9999 FEW028 12/05 Q1027 NOSIG
Getting current METAR information for LGTS 211450Z 34007KT CAVOK 16/00 Q1022 NOSIG

Schedule Frequency

Route Map